Latest Weather Observations for Warra

IDT60801

Issued at 4:35 pm EST Tuesday 2 September 2014 (issued every 30 minutes, with the page automatically refreshed every 10 minutes)

About weather observations | Map of weather stations | Latest weather observations for TAS | Other Formats
Station Details ID: 097024 Name: WARRA Lat: -43.06 Lon: 146.70 Height: 495.0 m
Data from the previous 72 hours. | See also: Recent months at Warra
Date/Time
EST
Temp
°C
App
Temp
°C
Dew
Point
Rel
Hum
%
Delta-T
°C
Wind Press
QNH
hPa
Press
MSL
hPa
Rain
since 9 am
mm
Dir
 
Spd
km/h
Gust
km/h
Spd
kts
Gust
kts
02/04:30pm 4.6 -0.3 1.8 82 1.1 WSW 17 30 9 16 - - 0.2
02/04:00pm 5.6 1.1 2.4 80 1.3 WSW 15 24 8 13 - - 0.2
02/03:30pm 5.4 0.3 2.8 83 1.1 WSW 19 30 10 16 - - 0.2
02/03:00pm 6.2 2.4 3.7 84 1.1 SW 13 24 7 13 - - 0.2
02/02:30pm 5.8 0.7 2.8 81 1.3 SW 19 37 10 20 - - 0.0
02/02:00pm 7.8 3.4 2.9 71 2.1 WSW 15 24 8 13 - - 0.0
02/01:30pm 8.1 3.0 2.8 69 2.3 W 19 32 10 17 - - 0.0
02/01:00pm 7.3 1.9 2.6 72 2.0 W 20 30 11 16 - - 0.0
02/12:30pm 7.7 2.3 1.5 65 2.6 WSW 19 30 10 16 - - 0.0
02/12:00pm 7.9 3.3 1.3 63 2.8 WSW 15 28 8 15 - - 0.0
02/11:30am 7.3 2.6 1.0 64 2.6 W 15 28 8 15 - - 0.0
02/11:00am 7.9 2.5 1.1 62 2.8 W 19 32 10 17 - - 0.0
02/10:30am 7.2 2.9 1.3 66 2.5 WSW 13 28 7 15 - - 0.0
02/10:00am 6.6 2.3 0.9 67 2.3 WSW 13 30 7 16 - - 0.0
02/09:30am 5.9 2.3 0.9 70 2.0 SW 9 17 5 9 - - 0.0
02/09:00am 5.8 1.9 1.2 72 1.9 W 11 20 6 11 - - 7.4
02/08:30am 5.2 2.4 1.9 79 1.4 W 6 9 3 5 - - 7.4
02/08:00am 2.2 0.3 0.4 88 0.7 CALM 0 0 0 0 - - 7.4
02/07:30am 2.7 -0.3 0.8 87 0.7 WSW 6 7 3 4 - - 7.4
02/07:00am 1.0 -2.8 -0.5 90 0.6 W 9 11 5 6 - - 7.4
02/06:30am 1.5 -3.0 0.0 90 0.6 W 13 17 7 9 - - 7.4
02/06:00am 1.6 -2.5 0.0 89 0.6 W 11 13 6 7 - - 7.4
02/05:30am 1.6 -2.5 0.1 90 0.6 WSW 11 17 6 9 - - 7.4
02/05:00am 1.6 -2.4 0.7 94 0.3 WSW 11 17 6 9 - - 7.4
02/04:30am 1.8 -1.7 1.1 95 0.3 SSW 9 13 5 7 - - 7.4
02/04:00am 1.9 -1.6 1.2 95 0.3 SW 9 15 5 8 - - 7.4
02/03:30am 2.2 -1.6 1.8 97 0.2 SW 11 17 6 9 - - 7.4
02/03:00am 1.6 -1.9 1.2 97 0.2 SW 9 11 5 6 - - 7.4
02/02:30am 2.1 -1.4 1.5 96 0.2 SW 9 15 5 8 - - 7.4
02/02:00am 2.7 -1.1 2.0 95 0.3 SW 11 17 6 9 - - 7.4
02/01:30am 2.3 -1.2 1.4 94 0.4 SW 9 13 5 7 - - 7.4
02/01:00am 2.7 -0.3 1.7 93 0.4 SSW 7 13 4 7 - - 7.4
02/12:30am 3.0 -0.8 1.5 90 0.6 WSW 11 17 6 9 - - 7.4
02/12:00am 3.2 -0.2 1.6 89 0.6 SSW 9 15 5 8 - - 7.4
 
Date/Time
EST
Temp
°C
App
Temp
°C
Dew
Point
Rel
Hum
%
Delta-T
°C
Wind Press
QNH
hPa
Press
MSL
hPa
Rain
since 9 am
mm
Dir
 
Spd
km/h
Gust
km/h
Spd
kts
Gust
kts
01/11:30pm 3.5 -0.3 2.0 90 0.6 SW 11 19 6 10 - - 7.4
01/11:00pm 4.0 0.4 2.8 92 0.5 SSW 11 19 6 10 - - 7.4
01/10:30pm 4.0 -0.2 3.9 99 0.0 SSW 15 22 8 12 - - 7.4
01/10:00pm 3.9 0.8 3.8 99 0.0 SSW 9 17 5 9 - - 7.4
01/09:30pm 3.5 0.7 3.4 99 0.0 SSW 7 11 4 6 - - 7.4
01/09:00pm 3.6 0.5 3.5 99 0.0 SW 9 13 5 7 - - 7.4
01/08:30pm 4.1 1.5 4.0 99 0.0 SSW 7 9 4 5 - - 7.4
01/08:00pm 4.4 1.4 4.3 99 0.0 SW 9 15 5 8 - - 7.4
01/07:30pm 4.6 0.5 4.5 99 0.0 SSW 15 24 8 13 - - 7.4
01/07:00pm 5.1 1.9 5.0 99 0.0 SSW 11 17 6 9 - - 6.8
01/06:30pm 5.1 2.5 4.2 94 0.4 SSW 7 11 4 6 - - 6.8
01/06:00pm 5.3 2.3 4.1 92 0.5 SSW 9 11 5 6 - - 6.6
01/05:30pm 5.4 1.9 3.7 89 0.7 SSW 11 20 6 11 - - 6.6
01/05:00pm 5.6 2.6 3.9 89 0.7 SW 9 17 5 9 - - 6.6
01/04:30pm 5.5 2.1 4.2 91 0.6 SSW 11 17 6 9 - - 6.6
01/04:00pm 5.8 1.3 4.3 90 0.7 SW 17 39 9 21 - - 6.6
01/03:30pm 5.9 1.8 4.5 91 0.6 SSW 15 24 8 13 - - 6.6
01/03:00pm 5.9 1.7 5.8 99 0.0 SSW 17 24 9 13 - - 6.6
01/02:30pm 6.1 2.7 6.0 99 0.0 SSW 13 24 7 13 - - 6.6
01/02:00pm 6.2 3.2 6.1 99 0.0 SSW 11 20 6 11 - - 6.2
01/01:30pm 6.1 2.0 6.0 99 0.0 SSW 17 28 9 15 - - 5.6
01/01:00pm 6.7 3.4 6.6 99 0.0 SSW 13 22 7 12 - - 4.2
01/12:30pm 7.0 4.6 6.9 99 0.0 S 9 19 5 10 - - 3.0
01/12:00pm 8.1 5.1 7.8 98 0.1 SW 13 20 7 11 - - 2.6
01/11:30am 8.7 5.8 8.3 97 0.2 WSW 13 22 7 12 - - 2.4
01/11:00am 10.1 9.7 9.6 97 0.3 W 2 6 1 3 - - 1.2
01/10:30am 9.5 9.0 9.2 98 0.2 NW 2 11 1 6 - - 1.0
01/10:00am 9.8 8.6 9.5 98 0.2 N 6 9 3 5 - - 0.6
01/09:30am 9.7 8.3 8.9 95 0.4 NNW 6 9 3 5 - - 0.2
01/09:00am 9.5 7.4 8.4 93 0.5 W 9 13 5 7 - - 0.6
01/08:30am 9.4 7.3 8.2 92 0.6 NW 9 15 5 8 - - 0.4
01/08:00am 9.4 7.2 7.7 89 0.8 NW 9 11 5 6 - - 0.2
01/07:30am 8.9 7.0 7.4 90 0.7 NNW 7 9 4 5 - - 0.2
01/07:00am 9.0 7.9 6.8 86 1.1 SW 2 7 1 4 - - 0.0
01/06:30am 9.8 7.7 6.7 81 1.5 NNW 7 13 4 7 - - 0.0
01/06:00am 9.9 7.8 6.6 80 1.6 SE 7 11 4 6 - - 0.0
01/05:30am 10.0 7.9 6.5 79 1.7 NW 7 17 4 9 - - 0.0
01/05:00am 10.9 7.1 5.9 71 2.4 NW 15 24 8 13 - - 0.0
01/04:30am 11.0 8.6 5.3 68 2.7 NW 7 13 4 7 - - 0.0
01/04:00am 11.1 7.5 4.8 65 2.9 N 13 30 7 16 - - 0.0
01/03:30am 10.7 7.5 5.0 68 2.7 NNW 11 20 6 11 - - 0.0
01/03:00am 10.8 7.6 4.9 67 2.8 NNW 11 19 6 10 - - 0.0
01/02:30am 10.2 7.4 5.0 70 2.4 NNW 9 20 5 11 - - 0.0
01/02:00am 9.8 7.8 4.6 70 2.4 N 4 7 2 4 - - 0.0
01/01:30am 10.9 7.6 4.8 66 2.8 NNE 11 24 6 13 - - 0.0
01/01:00am 11.2 7.5 4.7 64 3.0 N 13 26 7 14 - - 0.0
01/12:30am 9.0 7.5 5.0 76 1.8 E 2 7 1 4 - - 0.0
01/12:00am 9.1 7.2 4.9 75 1.9 SE 4 9 2 5 - - 0.0
 
Date/Time
EST
Temp
°C
App
Temp
°C
Dew
Point
Rel
Hum
%
Delta-T
°C
Wind Press
QNH
hPa
Press
MSL
hPa
Rain
since 9 am
mm
Dir
 
Spd
km/h
Gust
km/h
Spd
kts
Gust
kts
31/11:30pm 9.3 6.8 4.9 74 2.0 NW 7 11 4 6 - - 0.0
31/11:00pm 10.7 7.9 5.0 68 2.7 NNE 9 15 5 8 - - 0.0
31/10:30pm 9.9 8.0 5.1 72 2.2 N 4 7 2 4 - - 0.0
31/10:00pm 10.3 8.0 5.5 72 2.3 NE 7 13 4 7 - - 0.0
31/09:30pm 10.3 8.0 5.7 73 2.2 N 7 11 4 6 - - 0.0
31/09:00pm 10.7 8.4 5.9 72 2.3 N 7 11 4 6 - - 0.0
31/08:30pm 10.7 8.4 5.9 72 2.3 NNE 7 13 4 7 - - 0.0
31/08:00pm 10.9 8.7 6.1 72 2.3 NE 7 9 4 5 - - 0.0
31/07:30pm 11.1 9.0 6.0 71 2.4 NE 6 11 3 6 - - 0.0
31/07:00pm 11.1 9.0 5.8 70 2.5 N 6 7 3 4 - - 0.0
31/06:30pm 10.9 8.6 5.9 71 2.4 N 7 9 4 5 - - 0.0
31/06:00pm 11.1 8.9 6.0 71 2.4 N 7 9 4 5 - - 0.0
31/05:30pm 11.6 9.4 6.3 70 2.6 N 7 9 4 5 - - 0.0
31/05:00pm 12.1 9.9 6.4 68 2.8 N 7 11 4 6 - - 0.0
31/04:30pm 12.5 10.5 7.2 70 2.6 NNW 7 9 4 5 - - 0.0
31/04:00pm 13.4 10.9 6.7 64 3.3 N 9 13 5 7 - - 0.0
31/03:30pm 14.4 11.8 6.0 57 4.1 NW 9 15 5 8 - - 0.0
31/03:00pm 14.6 11.6 6.2 57 4.1 NW 11 19 6 10 - - 0.0
31/02:30pm 14.6 11.0 5.1 53 4.6 NNW 13 20 7 11 - - 0.0
31/02:00pm 14.9 11.9 6.0 55 4.4 NNW 11 20 6 11 - - 0.0
31/01:30pm 15.2 12.6 6.0 54 4.5 NNW 9 19 5 10 - - 0.0
31/01:00pm 14.2 11.6 6.3 59 3.9 N 9 13 5 7 - - 0.0
31/12:30pm 14.0 11.6 5.4 56 4.2 N 7 13 4 7 - - 0.0
31/12:00pm 13.9 10.7 5.3 56 4.1 N 11 17 6 9 - - 0.0
31/11:30am 14.1 11.0 5.5 56 4.2 N 11 19 6 10 - - 0.0
31/11:00am 12.8 10.5 5.0 59 3.7 S 6 15 3 8 - - 0.0
31/10:30am 12.5 10.6 5.0 60 3.6 NNE 4 9 2 5 - - 0.0
31/10:00am 11.4 9.3 3.7 59 3.5 E 4 7 2 4 - - 0.0
31/09:30am 11.5 8.8 3.5 58 3.6 ENE 7 17 4 9 - - 0.0
31/09:00am 12.8 9.1 2.6 50 4.6 NNW 11 20 6 11 - - 0.0
31/08:30am 11.8 8.0 2.0 51 4.3 NW 11 20 6 11 - - 0.0
31/08:00am 10.9 7.1 1.7 53 4.0 WNW 11 17 6 9 - - 0.0
31/07:30am 9.2 5.3 1.1 57 3.4 WNW 11 24 6 13 - - 0.0
31/07:00am 7.9 4.6 0.2 58 3.1 W 7 9 4 5 - - 0.0
31/06:30am 7.7 2.9 0.0 58 3.1 WNW 15 20 8 11 - - 0.0
31/06:00am 7.8 2.6 -0.2 57 3.2 WNW 17 26 9 14 - - 0.0
31/05:30am 7.0 2.6 0.2 62 2.7 NW 13 20 7 11 - - 0.0
31/05:00am 4.6 1.4 -0.4 70 1.9 SSW 6 11 3 6 - - 0.0
31/04:30am 6.3 1.8 0.0 64 2.5 NNW 13 20 7 11 - - 0.0
31/04:00am 4.6 0.8 -0.6 69 2.0 W 9 15 5 8 - - 0.0
31/03:30am 4.6 1.0 0.9 77 1.5 NNE 9 11 5 6 - - 0.0
31/03:00am 4.3 0.7 0.8 78 1.4 N 9 15 5 8 - - 0.0
31/02:30am 4.8 0.5 1.3 78 1.4 N 13 17 7 9 - - 0.0
31/02:00am 4.6 1.1 1.5 80 1.3 N 9 13 5 7 - - 0.0
31/01:30am 5.4 2.4 2.1 79 1.4 NNE 7 11 4 6 - - 0.0
31/01:00am 5.9 2.3 2.7 80 1.4 N 11 15 6 8 - - 0.0
31/12:30am 5.8 2.2 3.0 82 1.2 N 11 15 6 8 - - 0.0
31/12:00am 6.2 3.2 4.2 87 0.9 N 9 11 5 6 - - 0.0
 
Date/Time
EST
Temp
°C
App
Temp
°C
Dew
Point
Rel
Hum
%
Delta-T
°C
Wind Press
QNH
hPa
Press
MSL
hPa
Rain
since 9 am
mm
Dir
 
Spd
km/h
Gust
km/h
Spd
kts
Gust
kts
30/11:30pm 6.0 3.4 4.0 87 0.9 NNW 7 7 4 4 - - 0.0
30/11:00pm 6.7 4.1 4.2 84 1.1 N 7 9 4 5 - - 0.0
30/10:30pm 6.5 3.5 4.2 85 1.0 N 9 11 5 6 - - 0.0
30/10:00pm 7.2 4.3 4.5 83 1.2 N 9 13 5 7 - - 0.0
30/09:30pm 8.1 4.4 4.3 77 1.7 NNW 13 17 7 9 - - 0.0
30/09:00pm 7.4 4.6 5.0 85 1.1 N 9 11 5 6 - - 0.0
30/08:30pm 7.9 5.5 5.2 83 1.2 N 7 9 4 5 - - 0.0
30/08:00pm 8.2 5.8 5.1 81 1.4 NNE 7 9 4 5 - - 0.0
30/07:30pm 9.0 6.6 5.2 77 1.8 NNE 7 9 4 5 - - 0.0
30/07:00pm 9.4 6.6 5.2 75 2.0 N 9 13 5 7 - - 0.0
30/06:30pm 9.6 7.2 5.2 74 2.0 N 7 11 4 6 - - 0.0
30/06:00pm 10.1 7.8 5.7 74 2.1 NE 7 11 4 6 - - 0.0
30/05:30pm 9.2 8.2 5.4 77 1.8 CALM 0 0 0 0 - - 0.0
30/05:00pm 11.6 9.4 5.5 66 2.9 ENE 6 7 3 4 - - 0.0

Other Formats:

Comma delimited format used in spreadsheet applications
http://www.bom.gov.au/fwo/IDT60801/IDT60801.95962.axf

JavaScript Object Notation format (JSON) in row-major order
http://www.bom.gov.au/fwo/IDT60801/IDT60801.95962.json